Feldkirch, Austria
Current Conditions -  °F | °C
As of 6:20 PM on Sunday 25 Jan 2015 (Local Time) from LSZR Reporting Station
Broken Clouds Broken Clouds  
Wind Chill: 34°   Ceiling: 5000
Heat Index: 34°   Visibility: 6mi
Dew Point: 27°   Wind: 3mph
Humidity: 75%   Direction: NA
Pressure: 30.39"   Gusts: NA
Location:  47.25°N, 9.59°E
Report Text: LSZR 251620Z VRB03KT 9999 FEW017 SCT022 BKN050 01/M03 Q1029 TEMPO SHSN BKN017 RMK K
Loading
Personal Weather Stations






























Interactive Weather Map New forecast layout! Learn more

10-Day Weather Forecast

Advertisements
Track Severe Weather on mobile